Archival Weather

Chicago O'Hare International

Chicago, Illinois (KORD)

Report from: Wednesday, January 25, 2023 12:29 AM CST
Current time: Monday, February 6, 2023 12:18 AM CST

Current weather
Weather history
Weather forecast

Temperature0.0°C (32.0°F)
Wind chill-3.1°C (26.4°F)
Dew point-2.8°C (27.0°F)
Winds 5 kts (2.6 m/s, 5.8 mph) South-Southeast (150°)
Visibility8 mi. (12.9 km)
Clouds Ceiling: Broken clouds 1,100 ft. (335 m)
Overcast 2,200 ft. (671 m)
Altimeter30.01 in.Hg (1016 mB)
Relative humidity81 %
Density altitude-1,859 ft. (-567 m)
Remarks Automated weather observing station with precipitation discriminator
Flight conditions Marginal Visual Meteorological Conditions
Raw dataKORD 250629Z 15005KT 8SM BKN011 OVC022 00/M03 A3001 RMK AO2 T00001028
An error has occurred. This application may no longer respond until reloaded. Reload 🗙